Česky Dansk Deutsch English Español Suomi Français Magyar Italiano Nederlands norsk Polski Português svenska Türkçe

 

Het Weer

Le Luc (Frankrijk)

10:00, 22 augustus 2016 (GMT)

NWNNE
WE
SWSSE
Home            
Le Luc St-Raphael Hyeres Cannes Nice St-Auban-Sur-Durance Aix Les Milles Marseille / Marignane Salon Istres Monte Malanotte Orange Capo Mele Albenga Cuneo / Levaldigi Nimes / Garons Nimes / Courbessac Montelimar Montpellier Torino / Bric Della Croce Calvi Torino / Caselle Genova / Sestri

Om een weerknop op uw website of weblog te plaatsen, copieer onderstaande code en plak die in uw pagina. In het eerste vakje staat HTML-code, in het tweede vakje UBB-code.


Add to Google

Details

Wind speed:4 bf, 13 kn, 6.7 m/s, 15.0 miles/h, 24.1 km/h
Wind direction:SE, 140°
Visibility:Greater than 10000 m, 10 km, 32800 ft, 6.2 miles
Het Weer:moderate
Temperature:30°C, 86°F
Gefühlte Temperatur:28°C, 83°F
Dew-point:9°C, 48°F
Atmospheric pressure:1021 hPa, 765.8 mmHg, 30.15 inHg, 1.008 atm
Relative humidity:27.1 %
METAR:LFMC 221000Z AUTO 14013KT 9999 30/09 Q1021

Snelkoppelingen

Actuele weersinformatie van de hele wereld. Voeg locaties toe met het plus (+) symbool. Deze snelkoppelingen kunnen worden toegevoegd aan Google.

Lid van de Technetium groep

website free tracking
StatCounter NetStat W3C Validator

09-08-2022 03:27:19
astro.technetium.be money.technetium.be phote.technetium.be tafeltennistafel.technetium.be www.ligfiets.net